sensor_id;sensor_type;location;lat;lon;timestamp;pressure;altitude;pressure_sealevel;temperature;humidity
77770;BME280;66961;51.482;9.160;2023-05-10T00:01:04;98506.09;;;14.32;83.50
77770;BME280;66961;51.482;9.160;2023-05-10T00:03:30;98515.72;;;14.33;83.45
77770;BME280;66961;51.482;9.160;2023-05-10T00:05:55;98501.56;;;14.33;83.60
77770;BME280;66961;51.482;9.160;2023-05-10T00:08:20;98502.56;;;14.38;83.24
77770;BME280;66961;51.482;9.160;2023-05-10T00:10:46;98495.00;;;14.35;83.91
77770;BME280;66961;51.482;9.160;2023-05-10T00:13:11;98494.78;;;14.37;84.28
77770;BME280;66961;51.482;9.160;2023-05-10T00:15:37;98493.75;;;14.38;84.50
77770;BME280;66961;51.482;9.160;2023-05-10T00:18:02;98499.13;;;14.31;83.71
77770;BME280;66961;51.482;9.160;2023-05-10T00:20:30;98499.16;;;14.24;84.38
77770;BME280;66961;51.482;9.160;2023-05-10T00:22:55;98486.72;;;14.18;84.88
77770;BME280;66961;51.482;9.160;2023-05-10T00:25:20;98498.56;;;14.22;85.31
77770;BME280;66961;51.482;9.160;2023-05-10T00:27:46;98487.75;;;14.17;84.88
77770;BME280;66961;51.482;9.160;2023-05-10T00:30:11;98490.84;;;14.14;84.98
77770;BME280;66961;51.482;9.160;2023-05-10T00:32:36;98484.97;;;14.06;84.93
77770;BME280;66961;51.482;9.160;2023-05-10T00:35:01;98489.13;;;14.02;85.14
77770;BME280;66961;51.482;9.160;2023-05-10T00:37:27;98475.22;;;13.93;85.89
77770;BME280;66961;51.482;9.160;2023-05-10T00:39:52;98480.34;;;13.95;86.11
77770;BME280;66961;51.482;9.160;2023-05-10T00:42:17;98483.22;;;13.93;86.08
77770;BME280;66961;51.482;9.160;2023-05-10T00:44:43;98474.41;;;13.93;86.49
77770;BME280;66961;51.482;9.160;2023-05-10T00:47:08;98484.84;;;13.94;86.71
77770;BME280;66961;51.482;9.160;2023-05-10T00:49:34;98480.34;;;13.95;86.65
77770;BME280;66961;51.482;9.160;2023-05-10T00:52:00;98475.63;;;13.97;86.98
77770;BME280;66961;51.482;9.160;2023-05-10T00:54:26;98492.34;;;14.04;87.43
77770;BME280;66961;51.482;9.160;2023-05-10T00:56:51;98490.06;;;14.07;87.84
77770;BME280;66961;51.482;9.160;2023-05-10T00:59:16;98481.44;;;14.12;87.80
77770;BME280;66961;51.482;9.160;2023-05-10T01:01:43;98481.22;;;14.13;87.67
77770;BME280;66961;51.482;9.160;2023-05-10T01:04:10;98484.31;;;14.10;86.58
77770;BME280;66961;51.482;9.160;2023-05-10T01:06:36;98490.03;;;14.14;87.90
77770;BME280;66961;51.482;9.160;2023-05-10T01:09:01;98479.97;;;14.16;88.52
77770;BME280;66961;51.482;9.160;2023-05-10T01:11:26;98471.38;;;14.14;87.42
77770;BME280;66961;51.482;9.160;2023-05-10T01:13:56;98474.91;;;14.08;87.34
77770;BME280;66961;51.482;9.160;2023-05-10T01:16:23;98473.47;;;14.05;87.45
77770;BME280;66961;51.482;9.160;2023-05-10T01:18:51;98467.72;;;14.08;88.58
77770;BME280;66961;51.482;9.160;2023-05-10T01:34:37;98470.28;;;13.97;87.98
77770;BME280;66961;51.482;9.160;2023-05-10T01:37:20;98467.41;;;13.98;88.56
77770;BME280;66961;51.482;9.160;2023-05-10T01:42:17;98472.34;;;13.95;87.65
77770;BME280;66961;51.482;9.160;2023-05-10T01:45:00;98453.38;;;13.84;87.02
77770;BME280;66961;51.482;9.160;2023-05-10T01:47:50;98465.44;;;13.87;87.83
77770;BME280;66961;51.482;9.160;2023-05-10T01:50:19;98459.50;;;13.85;87.62
77770;BME280;66961;51.482;9.160;2023-05-10T01:52:51;98466.09;;;13.82;87.83
77770;BME280;66961;51.482;9.160;2023-05-10T01:55:20;98457.72;;;13.79;87.86
77770;BME280;66961;51.482;9.160;2023-05-10T01:57:48;98462.81;;;13.80;87.86
77770;BME280;66961;51.482;9.160;2023-05-10T02:00:17;98470.81;;;13.80;87.86
77770;BME280;66961;51.482;9.160;2023-05-10T02:02:45;98468.34;;;13.79;87.92
77770;BME280;66961;51.482;9.160;2023-05-10T02:05:13;98480.84;;;13.78;88.11
77770;BME280;66961;51.482;9.160;2023-05-10T02:07:39;98465.69;;;13.79;88.16
77770;BME280;66961;51.482;9.160;2023-05-10T02:10:06;98474.13;;;13.76;88.31
77770;BME280;66961;51.482;9.160;2023-05-10T02:12:35;98472.06;;;13.78;88.15
77770;BME280;66961;51.482;9.160;2023-05-10T02:15:02;98472.66;;;13.80;88.71
77770;BME280;66961;51.482;9.160;2023-05-10T02:17:30;98477.16;;;13.79;88.56
77770;BME280;66961;51.482;9.160;2023-05-10T02:19:57;98468.78;;;13.76;88.48
77770;BME280;66961;51.482;9.160;2023-05-10T02:22:25;98476.53;;;13.84;89.35
77770;BME280;66961;51.482;9.160;2023-05-10T02:24:51;98476.09;;;13.87;89.64
77770;BME280;66961;51.482;9.160;2023-05-10T02:27:18;98472.78;;;13.91;89.44
77770;BME280;66961;51.482;9.160;2023-05-10T02:29:44;98472.63;;;13.86;88.25
77770;BME280;66961;51.482;9.160;2023-05-10T02:32:10;98475.09;;;13.81;87.99
77770;BME280;66961;51.482;9.160;2023-05-10T02:34:37;98476.94;;;13.81;88.07
77770;BME280;66961;51.482;9.160;2023-05-10T02:37:04;98477.25;;;13.66;88.25
77770;BME280;66961;51.482;9.160;2023-05-10T02:39:31;98482.81;;;13.58;87.98
77770;BME280;66961;51.482;9.160;2023-05-10T02:41:57;98479.63;;;13.43;87.24
77770;BME280;66961;51.482;9.160;2023-05-10T02:44:23;98491.78;;;13.25;85.95
77770;BME280;66961;51.482;9.160;2023-05-10T02:46:52;98496.53;;;13.17;86.52
77770;BME280;66961;51.482;9.160;2023-05-10T02:49:18;98511.66;;;13.03;86.15
77770;BME280;66961;51.482;9.160;2023-05-10T02:51:50;98500.69;;;12.86;86.60
77770;BME280;66961;51.482;9.160;2023-05-10T02:54:19;98503.16;;;12.81;87.75
77770;BME280;66961;51.482;9.160;2023-05-10T02:56:58;98499.88;;;12.73;88.49
77770;BME280;66961;51.482;9.160;2023-05-10T02:59:23;98499.06;;;12.66;87.92
77770;BME280;66961;51.482;9.160;2023-05-10T03:01:49;98501.13;;;12.57;87.61
77770;BME280;66961;51.482;9.160;2023-05-10T03:04:14;98503.19;;;12.55;88.06
77770;BME280;66961;51.482;9.160;2023-05-10T03:06:39;98501.53;;;12.54;88.44
77770;BME280;66961;51.482;9.160;2023-05-10T03:09:05;98494.38;;;12.48;88.60
77770;BME280;66961;51.482;9.160;2023-05-10T03:11:43;98496.25;;;12.47;89.26
77770;BME280;66961;51.482;9.160;2023-05-10T03:16:59;98513.44;;;12.45;89.08
77770;BME280;66961;51.482;9.160;2023-05-10T03:19:33;98500.75;;;12.40;89.42
77770;BME280;66961;51.482;9.160;2023-05-10T03:22:05;98513.44;;;12.45;89.63
77770;BME280;66961;51.482;9.160;2023-05-10T03:24:34;98520.19;;;12.41;89.11
77770;BME280;66961;51.482;9.160;2023-05-10T03:27:00;98518.75;;;12.38;89.33
77770;BME280;66961;51.482;9.160;2023-05-10T03:29:27;98525.69;;;12.39;89.20
77770;BME280;66961;51.482;9.160;2023-05-10T03:31:53;98520.59;;;12.38;89.02
77770;BME280;66961;51.482;9.160;2023-05-10T03:34:23;98522.44;;;12.37;88.94
77770;BME280;66961;51.482;9.160;2023-05-10T03:36:49;98528.56;;;12.38;87.75
77770;BME280;66961;51.482;9.160;2023-05-10T03:39:14;98529.97;;;12.34;88.40
77770;BME280;66961;51.482;9.160;2023-05-10T03:41:40;98527.94;;;12.29;88.05
77770;BME280;66961;51.482;9.160;2023-05-10T03:44:06;98543.69;;;12.31;87.87
77770;BME280;66961;51.482;9.160;2023-05-10T03:46:31;98533.44;;;12.27;88.44
77770;BME280;66961;51.482;9.160;2023-05-10T03:48:56;98537.13;;;12.26;88.60
77770;BME280;66961;51.482;9.160;2023-05-10T03:51:22;98535.50;;;12.25;88.47
77770;BME280;66961;51.482;9.160;2023-05-10T03:53:47;98538.16;;;12.25;88.49
77770;BME280;66961;51.482;9.160;2023-05-10T03:56:12;98533.44;;;12.21;88.59
77770;BME280;66961;51.482;9.160;2023-05-10T03:58:37;98536.72;;;12.30;88.70
77770;BME280;66961;51.482;9.160;2023-05-10T04:01:04;98544.69;;;12.30;88.74
77770;BME280;66961;51.482;9.160;2023-05-10T04:03:29;98544.69;;;12.30;88.39
77770;BME280;66961;51.482;9.160;2023-05-10T04:06:01;98543.25;;;12.27;88.33
77770;BME280;66961;51.482;9.160;2023-05-10T04:08:26;98547.97;;;12.25;87.77
77770;BME280;66961;51.482;9.160;2023-05-10T04:10:52;98551.84;;;12.22;87.55
77770;BME280;66961;51.482;9.160;2023-05-10T04:13:17;98552.25;;;12.19;87.57
77770;BME280;66961;51.482;9.160;2023-05-10T04:15:42;98550.59;;;12.18;88.33
77770;BME280;66961;51.482;9.160;2023-05-10T04:18:07;98555.09;;;12.18;87.74
77770;BME280;66961;51.482;9.160;2023-05-10T04:20:33;98550.00;;;12.16;88.16
77770;BME280;66961;51.482;9.160;2023-05-10T04:22:58;98558.56;;;12.18;88.03
77770;BME280;66961;51.482;9.160;2023-05-10T04:25:23;98551.63;;;12.17;88.04
77770;BME280;66961;51.482;9.160;2023-05-10T04:27:48;98548.97;;;12.17;88.23
77770;BME280;66961;51.482;9.160;2023-05-10T04:30:14;98559.81;;;12.22;88.28
77770;BME280;66961;51.482;9.160;2023-05-10T04:32:39;98558.78;;;12.23;88.26
77770;BME280;66961;51.482;9.160;2023-05-10T04:35:05;98555.94;;;12.25;88.03
77770;BME280;66961;51.482;9.160;2023-05-10T04:37:30;98557.16;;;12.22;87.62
77770;BME280;66961;51.482;9.160;2023-05-10T04:39:55;98560.63;;;12.23;86.86
77770;BME280;66961;51.482;9.160;2023-05-10T04:42:20;98561.66;;;12.22;87.42
77770;BME280;66961;51.482;9.160;2023-05-10T04:44:46;98565.53;;;12.26;87.58
77770;BME280;66961;51.482;9.160;2023-05-10T04:47:11;98563.91;;;12.25;87.35
77770;BME280;66961;51.482;9.160;2023-05-10T04:49:36;98574.13;;;12.28;87.21
77770;BME280;66961;51.482;9.160;2023-05-10T04:52:01;98572.28;;;12.29;87.60
77770;BME280;66961;51.482;9.160;2023-05-10T04:54:27;98577.41;;;12.30;86.78
77770;BME280;66961;51.482;9.160;2023-05-10T04:56:52;98576.38;;;12.31;86.75
77770;BME280;66961;51.482;9.160;2023-05-10T04:59:17;98580.88;;;12.31;86.86
77770;BME280;66961;51.482;9.160;2023-05-10T05:01:42;98580.06;;;12.30;87.63
77770;BME280;66961;51.482;9.160;2023-05-10T05:04:08;98584.56;;;12.30;87.37
77770;BME280;66961;51.482;9.160;2023-05-10T05:06:33;98575.94;;;12.21;87.69
77770;BME280;66961;51.482;9.160;2023-05-10T05:08:58;98585.56;;;12.29;88.04
77770;BME280;66961;51.482;9.160;2023-05-10T05:11:24;98586.59;;;12.27;86.98
77770;BME280;66961;51.482;9.160;2023-05-10T05:13:49;98597.63;;;12.31;87.16
77770;BME280;66961;51.482;9.160;2023-05-10T05:16:14;98591.28;;;12.32;87.70
77770;BME280;66961;51.482;9.160;2023-05-10T05:18:39;98597.03;;;12.36;87.00
77770;BME280;66961;51.482;9.160;2023-05-10T05:21:18;98611.56;;;12.40;86.88
77770;BME280;66961;51.482;9.160;2023-05-10T05:23:43;98599.91;;;12.41;86.77
77770;BME280;66961;51.482;9.160;2023-05-10T05:26:09;98608.88;;;12.40;87.02
77770;BME280;66961;51.482;9.160;2023-05-10T05:28:34;98619.72;;;12.45;86.38
77770;BME280;66961;51.482;9.160;2023-05-10T05:31:00;98609.94;;;12.45;86.36
77770;BME280;66961;51.482;9.160;2023-05-10T05:33:25;98618.50;;;12.47;86.57
77770;BME280;66961;51.482;9.160;2023-05-10T05:35:50;98616.44;;;12.49;87.50
77770;BME280;66961;51.482;9.160;2023-05-10T05:38:16;98624.63;;;12.54;87.22
77770;BME280;66961;51.482;9.160;2023-05-10T05:40:41;98621.16;;;12.54;87.17
77770;BME280;66961;51.482;9.160;2023-05-10T05:43:06;98629.13;;;12.60;87.74
77770;BME280;66961;51.482;9.160;2023-05-10T05:45:32;98635.25;;;12.61;87.04
77770;BME280;66961;51.482;9.160;2023-05-10T05:47:57;98643.44;;;12.59;86.57
77770;BME280;66961;51.482;9.160;2023-05-10T05:50:22;98646.91;;;12.60;87.31
77770;BME280;66961;51.482;9.160;2023-05-10T05:52:47;98647.94;;;12.59;86.32
77770;BME280;66961;51.482;9.160;2023-05-10T05:55:13;98650.59;;;12.52;86.34
77770;BME280;66961;51.482;9.160;2023-05-10T05:57:38;98644.44;;;12.52;86.31
77770;BME280;66961;51.482;9.160;2023-05-10T06:00:04;98660.41;;;12.52;84.33
77770;BME280;66961;51.482;9.160;2023-05-10T06:02:29;98658.16;;;12.49;84.83
77770;BME280;66961;51.482;9.160;2023-05-10T06:04:54;98670.00;;;12.40;83.58
77770;BME280;66961;51.482;9.160;2023-05-10T06:07:20;98669.41;;;12.44;85.35
77770;BME280;66961;51.482;9.160;2023-05-10T06:09:45;98680.84;;;12.45;85.24
77770;BME280;66961;51.482;9.160;2023-05-10T06:12:10;98669.19;;;12.39;83.80
77770;BME280;66961;51.482;9.160;2023-05-10T06:14:35;98679.00;;;12.39;84.02
77770;BME280;66961;51.482;9.160;2023-05-10T06:17:01;98693.50;;;12.36;84.63
77770;BME280;66961;51.482;9.160;2023-05-10T06:19:26;98694.31;;;12.30;83.91
77770;BME280;66961;51.482;9.160;2023-05-10T06:21:51;98715.56;;;12.30;83.91
77770;BME280;66961;51.482;9.160;2023-05-10T06:24:17;98697.16;;;12.29;83.35
77770;BME280;66961;51.482;9.160;2023-05-10T06:26:42;98700.63;;;12.29;83.60
77770;BME280;66961;51.482;9.160;2023-05-10T06:29:07;98709.88;;;12.40;84.49
77770;BME280;66961;51.482;9.160;2023-05-10T06:31:33;98708.63;;;12.49;84.60
77770;BME280;66961;51.482;9.160;2023-05-10T06:33:58;98713.38;;;12.60;83.18
77770;BME280;66961;51.482;9.160;2023-05-10T06:36:23;98712.16;;;12.63;82.52
77770;BME280;66961;51.482;9.160;2023-05-10T06:38:48;98719.13;;;12.70;83.11
77770;BME280;66961;51.482;9.160;2023-05-10T06:41:14;98717.69;;;12.68;82.75
77770;BME280;66961;51.482;9.160;2023-05-10T06:43:39;98725.88;;;12.73;82.78
77770;BME280;66961;51.482;9.160;2023-05-10T06:46:04;98721.59;;;12.78;81.13
77770;BME280;66961;51.482;9.160;2023-05-10T06:48:29;98720.78;;;12.84;81.03
77770;BME280;66961;51.482;9.160;2023-05-10T06:50:55;98723.69;;;12.96;80.75
77770;BME280;66961;51.482;9.160;2023-05-10T06:53:20;98723.47;;;12.91;79.71
77770;BME280;66961;51.482;9.160;2023-05-10T06:55:45;98733.91;;;12.99;80.35
77770;BME280;66961;51.482;9.160;2023-05-10T06:58:10;98737.78;;;13.03;79.79
77770;BME280;66961;51.482;9.160;2023-05-10T07:00:36;98731.88;;;13.21;80.57
77770;BME280;66961;51.482;9.160;2023-05-10T07:03:01;98736.38;;;13.20;79.00
77770;BME280;66961;51.482;9.160;2023-05-10T07:05:26;98731.47;;;13.31;79.33
77770;BME280;66961;51.482;9.160;2023-05-10T07:07:51;98731.88;;;13.41;79.07
77770;BME280;66961;51.482;9.160;2023-05-10T07:10:17;98726.56;;;13.41;77.62
77770;BME280;66961;51.482;9.160;2023-05-10T07:12:42;98733.69;;;13.53;78.33
77770;BME280;66961;51.482;9.160;2023-05-10T07:15:08;98738.59;;;13.56;77.24
77770;BME280;66961;51.482;9.160;2023-05-10T07:17:33;98733.06;;;13.65;77.04
77770;BME280;66961;51.482;9.160;2023-05-10T07:19:59;98738.19;;;13.66;77.10
77770;BME280;66961;51.482;9.160;2023-05-10T07:22:24;98749.66;;;13.73;75.89
77770;BME280;66961;51.482;9.160;2023-05-10T07:24:49;98749.22;;;13.76;76.83
77770;BME280;66961;51.482;9.160;2023-05-10T07:27:15;98743.47;;;13.86;76.25
77770;BME280;66961;51.482;9.160;2023-05-10T07:29:40;98748.19;;;13.90;76.41
77770;BME280;66961;51.482;9.160;2023-05-10T07:32:05;98753.69;;;14.02;78.11
77770;BME280;66961;51.482;9.160;2023-05-10T07:34:31;98750.56;;;14.05;77.15
77770;BME280;66961;51.482;9.160;2023-05-10T07:36:58;98757.75;;;14.05;76.39
77770;BME280;66961;51.482;9.160;2023-05-10T07:39:23;98753.09;;;14.00;76.32
77770;BME280;66961;51.482;9.160;2023-05-10T07:41:49;98764.91;;;14.11;75.83
77770;BME280;66961;51.482;9.160;2023-05-10T07:44:14;98757.50;;;14.19;75.96
77770;BME280;66961;51.482;9.160;2023-05-10T07:46:39;98760.81;;;14.15;73.91
77770;BME280;66961;51.482;9.160;2023-05-10T07:49:04;98760.94;;;14.33;74.33
77770;BME280;66961;51.482;9.160;2023-05-10T07:51:30;98761.34;;;14.37;74.23
77770;BME280;66961;51.482;9.160;2023-05-10T07:53:55;98769.72;;;14.53;72.84
77770;BME280;66961;51.482;9.160;2023-05-10T07:56:23;98775.81;;;14.61;71.90
77770;BME280;66961;51.482;9.160;2023-05-10T07:58:48;98775.75;;;14.74;71.35
77770;BME280;66961;51.482;9.160;2023-05-10T08:01:13;98770.38;;;14.80;71.88
77770;BME280;66961;51.482;9.160;2023-05-10T08:03:38;98774.59;;;14.95;70.87
77770;BME280;66961;51.482;9.160;2023-05-10T08:06:04;98778.66;;;15.04;70.47
77770;BME280;66961;51.482;9.160;2023-05-10T08:08:29;98774.75;;;15.06;69.81
77770;BME280;66961;51.482;9.160;2023-05-10T08:10:55;98775.56;;;15.07;69.84
77770;BME280;66961;51.482;9.160;2023-05-10T08:13:20;98772.50;;;15.28;69.02
77770;BME280;66961;51.482;9.160;2023-05-10T08:15:46;98775.34;;;15.33;66.29
77770;BME280;66961;51.482;9.160;2023-05-10T08:18:11;98784.13;;;15.40;66.94
77770;BME280;66961;51.482;9.160;2023-05-10T08:20:36;98793.56;;;15.43;66.09
77770;BME280;66961;51.482;9.160;2023-05-10T08:23:02;98789.81;;;15.50;66.41
77770;BME280;66961;51.482;9.160;2023-05-10T08:25:27;98786.91;;;15.59;65.30
77770;BME280;66961;51.482;9.160;2023-05-10T08:27:52;98783.09;;;15.66;65.92
77770;BME280;66961;51.482;9.160;2023-05-10T08:30:17;98791.91;;;15.92;66.51
77770;BME280;66961;51.482;9.160;2023-05-10T08:32:43;98790.81;;;16.17;65.59
77770;BME280;66961;51.482;9.160;2023-05-10T08:35:08;98798.69;;;16.31;64.25
77770;BME280;66961;51.482;9.160;2023-05-10T08:37:33;98778.81;;;16.08;63.99
77770;BME280;66961;51.482;9.160;2023-05-10T08:39:58;98800.78;;;16.10;66.21
77770;BME280;66961;51.482;9.160;2023-05-10T08:42:25;98806.25;;;15.97;64.75
77770;BME280;66961;51.482;9.160;2023-05-10T08:44:53;98803.31;;;15.80;64.75
77770;BME280;66961;51.482;9.160;2023-05-10T08:47:20;98809.81;;;15.66;66.08
77770;BME280;66961;51.482;9.160;2023-05-10T08:49:47;98808.84;;;15.29;66.77
77770;BME280;66961;51.482;9.160;2023-05-10T08:52:13;98833.91;;;14.97;69.98
77770;BME280;66961;51.482;9.160;2023-05-10T08:54:40;98812.06;;;14.04;75.86
77770;BME280;66961;51.482;9.160;2023-05-10T08:57:06;98832.22;;;13.67;77.08
77770;BME280;66961;51.482;9.160;2023-05-10T08:59:31;98838.38;;;13.47;79.93
77770;BME280;66961;51.482;9.160;2023-05-10T09:02:00;98840.81;;;13.49;80.84
77770;BME280;66961;51.482;9.160;2023-05-10T09:04:27;98837.53;;;13.60;81.61
77770;BME280;66961;51.482;9.160;2023-05-10T09:06:53;98840.00;;;13.81;81.25
77770;BME280;66961;51.482;9.160;2023-05-10T09:09:19;98839.97;;;13.95;81.41
77770;BME280;66961;51.482;9.160;2023-05-10T09:11:45;98835.00;;;14.18;80.98
77770;BME280;66961;51.482;9.160;2023-05-10T09:14:12;98840.91;;;14.40;81.00
77770;BME280;66961;51.482;9.160;2023-05-10T09:16:37;98846.75;;;14.68;79.08
77770;BME280;66961;51.482;9.160;2023-05-10T09:19:03;98844.41;;;14.92;79.10
77770;BME280;66961;51.482;9.160;2023-05-10T09:21:28;98838.94;;;15.11;77.52
77770;BME280;66961;51.482;9.160;2023-05-10T09:23:54;98831.47;;;15.27;75.53
77770;BME280;66961;51.482;9.160;2023-05-10T09:26:23;98834.31;;;15.32;75.79
77770;BME280;66961;51.482;9.160;2023-05-10T09:28:53;98845.59;;;15.34;74.83
77770;BME280;66961;51.482;9.160;2023-05-10T09:31:18;98837.19;;;15.62;75.42
77770;BME280;66961;51.482;9.160;2023-05-10T09:33:45;98837.63;;;15.83;70.83
77770;BME280;66961;51.482;9.160;2023-05-10T09:36:10;98833.31;;;16.07;73.99
77770;BME280;66961;51.482;9.160;2023-05-10T09:38:47;98843.56;;;16.29;71.10
77770;BME280;66961;51.482;9.160;2023-05-10T09:41:20;98840.75;;;16.42;68.98
77770;BME280;66961;51.482;9.160;2023-05-10T09:43:45;98833.69;;;16.47;68.17
77770;BME280;66961;51.482;9.160;2023-05-10T09:46:10;98836.13;;;16.31;69.07
77770;BME280;66961;51.482;9.160;2023-05-10T09:48:42;98846.09;;;16.42;69.31
77770;BME280;66961;51.482;9.160;2023-05-10T09:51:07;98849.44;;;16.55;69.23
77770;BME280;66961;51.482;9.160;2023-05-10T09:53:32;98860.22;;;16.67;68.19
77770;BME280;66961;51.482;9.160;2023-05-10T09:55:57;98847.19;;;16.71;68.11
77770;BME280;66961;51.482;9.160;2023-05-10T09:58:23;98860.28;;;16.61;67.29
77770;BME280;66961;51.482;9.160;2023-05-10T10:00:48;98852.47;;;16.41;66.24
77770;BME280;66961;51.482;9.160;2023-05-10T10:03:19;98852.59;;;16.28;66.37
77770;BME280;66961;51.482;9.160;2023-05-10T10:05:45;98862.72;;;16.26;67.60
77770;BME280;66961;51.482;9.160;2023-05-10T10:08:12;98857.97;;;16.46;66.88
77770;BME280;66961;51.482;9.160;2023-05-10T10:10:37;98852.03;;;16.44;66.75
77770;BME280;66961;51.482;9.160;2023-05-10T10:13:03;98857.09;;;16.70;66.02
77770;BME280;66961;51.482;9.160;2023-05-10T10:15:28;98855.50;;;16.99;63.84
77770;BME280;66961;51.482;9.160;2023-05-10T10:17:54;98850.75;;;17.43;63.74
77770;BME280;66961;51.482;9.160;2023-05-10T10:20:20;98846.78;;;17.87;61.18
77770;BME280;66961;51.482;9.160;2023-05-10T10:22:47;98846.97;;;18.20;65.49
77770;BME280;66961;51.482;9.160;2023-05-10T10:25:13;98847.47;;;18.17;61.50
77770;BME280;66961;51.482;9.160;2023-05-10T10:30:35;98853.16;;;18.21;60.56
77770;BME280;66961;51.482;9.160;2023-05-10T10:35:49;98841.38;;;18.45;60.82
77770;BME280;66961;51.482;9.160;2023-05-10T10:38:15;98846.59;;;19.04;57.90
77770;BME280;66961;51.482;9.160;2023-05-10T10:40:40;98842.34;;;19.36;55.83
77770;BME280;66961;51.482;9.160;2023-05-10T10:43:25;98844.34;;;19.91;53.19
77770;BME280;66961;51.482;9.160;2023-05-10T10:48:38;98848.34;;;19.55;53.66
77770;BME280;66961;51.482;9.160;2023-05-10T10:51:04;98842.16;;;19.26;59.29
77770;BME280;66961;51.482;9.160;2023-05-10T10:53:29;98843.63;;;18.89;60.49
77770;BME280;66961;51.482;9.160;2023-05-10T10:56:12;98847.09;;;18.61;58.80
77770;BME280;66961;51.482;9.160;2023-05-10T10:58:38;98848.75;;;17.92;60.74
77770;BME280;66961;51.482;9.160;2023-05-10T11:01:12;98850.94;;;17.30;64.45
77770;BME280;66961;51.482;9.160;2023-05-10T11:03:38;98847.47;;;16.99;68.84
77770;BME280;66961;51.482;9.160;2023-05-10T11:06:03;98859.75;;;16.52;69.10
77770;BME280;66961;51.482;9.160;2023-05-10T11:08:33;98854.94;;;16.42;70.62
77770;BME280;66961;51.482;9.160;2023-05-10T11:13:44;98846.38;;;16.52;68.79
77770;BME280;66961;51.482;9.160;2023-05-10T11:16:27;98858.06;;;16.76;69.21
77770;BME280;66961;51.482;9.160;2023-05-10T11:19:00;98853.88;;;16.98;66.78
77770;BME280;66961;51.482;9.160;2023-05-10T11:21:26;98848.09;;;17.54;65.66
77770;BME280;66961;51.482;9.160;2023-05-10T11:23:53;98842.44;;;18.33;64.68
77770;BME280;66961;51.482;9.160;2023-05-10T11:26:19;98846.84;;;18.62;61.92
77770;BME280;66961;51.482;9.160;2023-05-10T11:28:47;98843.78;;;19.10;60.34
77770;BME280;66961;51.482;9.160;2023-05-10T11:31:18;98849.03;;;19.50;57.74
77770;BME280;66961;51.482;9.160;2023-05-10T11:33:53;98839.75;;;20.25;59.87
77770;BME280;66961;51.482;9.160;2023-05-10T11:36:25;98833.41;;;20.53;55.78
77770;BME280;66961;51.482;9.160;2023-05-10T11:38:51;98839.78;;;20.08;55.16
77770;BME280;66961;51.482;9.160;2023-05-10T11:41:18;98834.97;;;20.71;55.84
77770;BME280;66961;51.482;9.160;2023-05-10T11:43:46;98828.13;;;20.85;55.97
77770;BME280;66961;51.482;9.160;2023-05-10T11:46:12;98831.34;;;20.22;56.29
77770;BME280;66961;51.482;9.160;2023-05-10T11:48:39;98836.56;;;20.94;53.79
77770;BME280;66961;51.482;9.160;2023-05-10T11:51:05;98821.81;;;20.53;54.55
77770;BME280;66961;51.482;9.160;2023-05-10T11:53:32;98832.16;;;21.31;54.24
77770;BME280;66961;51.482;9.160;2023-05-10T11:56:05;98833.97;;;21.53;51.80
77770;BME280;66961;51.482;9.160;2023-05-10T11:58:31;98832.16;;;22.00;51.39
77770;BME280;66961;51.482;9.160;2023-05-10T12:00:58;98836.28;;;22.55;48.71
77770;BME280;66961;51.482;9.160;2023-05-10T12:03:24;98841.03;;;22.85;47.36
77770;BME280;66961;51.482;9.160;2023-05-10T12:05:49;98846.28;;;23.37;46.44
77770;BME280;66961;51.482;9.160;2023-05-10T12:08:16;98841.16;;;23.92;46.71
77770;BME280;66961;51.482;9.160;2023-05-10T12:10:44;98844.16;;;23.90;45.54
77770;BME280;66961;51.482;9.160;2023-05-10T12:13:14;98846.31;;;23.63;45.02
77770;BME280;66961;51.482;9.160;2023-05-10T12:15:40;98852.28;;;23.75;45.58
77770;BME280;66961;51.482;9.160;2023-05-10T12:18:05;98851.72;;;22.12;46.26
77770;BME280;66961;51.482;9.160;2023-05-10T12:20:31;98844.25;;;21.93;48.35
77770;BME280;66961;51.482;9.160;2023-05-10T12:22:58;98845.66;;;21.63;48.54
77770;BME280;66961;51.482;9.160;2023-05-10T12:25:24;98840.53;;;20.86;50.61
77770;BME280;66961;51.482;9.160;2023-05-10T12:27:55;98849.91;;;20.40;51.18
77770;BME280;66961;51.482;9.160;2023-05-10T12:30:28;98847.84;;;20.08;53.83
77770;BME280;66961;51.482;9.160;2023-05-10T12:32:58;98845.72;;;19.94;51.45
77770;BME280;66961;51.482;9.160;2023-05-10T12:35:24;98850.50;;;19.41;53.91
77770;BME280;66961;51.482;9.160;2023-05-10T12:37:52;98851.50;;;19.07;54.76
77770;BME280;66961;51.482;9.160;2023-05-10T12:40:18;98849.56;;;18.91;57.19
77770;BME280;66961;51.482;9.160;2023-05-10T12:42:43;98848.50;;;18.63;57.00
77770;BME280;66961;51.482;9.160;2023-05-10T12:45:09;98851.41;;;18.27;58.37
77770;BME280;66961;51.482;9.160;2023-05-10T12:47:34;98864.38;;;18.06;60.48
77770;BME280;66961;51.482;9.160;2023-05-10T12:50:00;98873.19;;;17.72;62.81
77770;BME280;66961;51.482;9.160;2023-05-10T12:52:26;98888.66;;;17.28;65.91
77770;BME280;66961;51.482;9.160;2023-05-10T12:54:52;98901.75;;;16.08;68.77
77770;BME280;66961;51.482;9.160;2023-05-10T12:57:18;98902.59;;;15.52;73.19
77770;BME280;66961;51.482;9.160;2023-05-10T12:59:43;98909.06;;;14.94;76.37
77770;BME280;66961;51.482;9.160;2023-05-10T13:02:08;98909.81;;;14.49;79.37
77770;BME280;66961;51.482;9.160;2023-05-10T13:04:34;98913.91;;;14.39;82.34
77770;BME280;66961;51.482;9.160;2023-05-10T13:06:59;98912.09;;;14.19;81.53
77770;BME280;66961;51.482;9.160;2023-05-10T13:09:25;98921.72;;;14.14;82.47
77770;BME280;66961;51.482;9.160;2023-05-10T13:11:51;98910.03;;;14.28;82.11
77770;BME280;66961;51.482;9.160;2023-05-10T13:14:16;98911.25;;;14.32;83.93
77770;BME280;66961;51.482;9.160;2023-05-10T13:16:41;98912.06;;;14.33;83.22
77770;BME280;66961;51.482;9.160;2023-05-10T13:19:07;98897.50;;;14.35;83.17
77770;BME280;66961;51.482;9.160;2023-05-10T13:21:32;98905.91;;;14.39;82.10
77770;BME280;66961;51.482;9.160;2023-05-10T13:23:57;98910.66;;;14.43;83.91
77770;BME280;66961;51.482;9.160;2023-05-10T13:26:22;98906.34;;;14.49;82.82